sensor_id;sensor_type;location;lat;lon;timestamp;P1;durP1;ratioP1;P2;durP2;ratioP2
25449;SDS011;13371;52.080;5.624;2023-08-01T00:00:29;7.45;;;3.10;;
25449;SDS011;13371;52.080;5.624;2023-08-01T00:02:54;7.55;;;3.53;;
25449;SDS011;13371;52.080;5.624;2023-08-01T00:05:20;5.93;;;2.88;;
25449;SDS011;13371;52.080;5.624;2023-08-01T00:07:46;6.68;;;2.70;;
25449;SDS011;13371;52.080;5.624;2023-08-01T00:10:11;6.00;;;3.10;;
25449;SDS011;13371;52.080;5.624;2023-08-01T00:12:37;7.75;;;3.67;;
25449;SDS011;13371;52.080;5.624;2023-08-01T00:15:03;6.20;;;3.30;;
25449;SDS011;13371;52.080;5.624;2023-08-01T00:17:29;6.53;;;3.15;;
25449;SDS011;13371;52.080;5.624;2023-08-01T00:19:54;8.60;;;3.42;;
25449;SDS011;13371;52.080;5.624;2023-08-01T00:22:20;12.63;;;4.07;;
25449;SDS011;13371;52.080;5.624;2023-08-01T00:24:46;8.23;;;3.55;;
25449;SDS011;13371;52.080;5.624;2023-08-01T00:27:12;8.85;;;4.13;;
25449;SDS011;13371;52.080;5.624;2023-08-01T00:29:38;7.70;;;3.63;;
25449;SDS011;13371;52.080;5.624;2023-08-01T00:32:04;7.30;;;3.42;;
25449;SDS011;13371;52.080;5.624;2023-08-01T00:34:30;9.93;;;3.75;;
25449;SDS011;13371;52.080;5.624;2023-08-01T00:36:56;10.50;;;3.78;;
25449;SDS011;13371;52.080;5.624;2023-08-01T00:39:22;8.93;;;3.53;;
25449;SDS011;13371;52.080;5.624;2023-08-01T00:41:47;7.35;;;3.75;;
25449;SDS011;13371;52.080;5.624;2023-08-01T00:44:13;8.00;;;3.10;;
25449;SDS011;13371;52.080;5.624;2023-08-01T00:46:38;6.93;;;3.38;;
25449;SDS011;13371;52.080;5.624;2023-08-01T00:49:04;8.32;;;3.65;;
25449;SDS011;13371;52.080;5.624;2023-08-01T00:51:31;5.43;;;2.80;;
25449;SDS011;13371;52.080;5.624;2023-08-01T00:53:57;9.57;;;3.35;;
25449;SDS011;13371;52.080;5.624;2023-08-01T00:56:23;9.02;;;3.63;;
25449;SDS011;13371;52.080;5.624;2023-08-01T00:58:49;6.72;;;3.03;;
25449;SDS011;13371;52.080;5.624;2023-08-01T01:01:15;8.93;;;3.20;;
25449;SDS011;13371;52.080;5.624;2023-08-01T01:03:40;6.78;;;3.70;;
25449;SDS011;13371;52.080;5.624;2023-08-01T01:06:08;7.82;;;3.30;;
25449;SDS011;13371;52.080;5.624;2023-08-01T01:08:40;8.00;;;3.15;;
25449;SDS011;13371;52.080;5.624;2023-08-01T01:11:06;7.78;;;3.60;;
25449;SDS011;13371;52.080;5.624;2023-08-01T01:13:33;6.03;;;3.17;;
25449;SDS011;13371;52.080;5.624;2023-08-01T01:15:58;12.20;;;3.65;;
25449;SDS011;13371;52.080;5.624;2023-08-01T01:18:24;6.47;;;3.25;;
25449;SDS011;13371;52.080;5.624;2023-08-01T01:20:49;5.63;;;3.25;;
25449;SDS011;13371;52.080;5.624;2023-08-01T01:23:15;7.75;;;3.30;;
25449;SDS011;13371;52.080;5.624;2023-08-01T01:25:42;6.28;;;3.22;;
25449;SDS011;13371;52.080;5.624;2023-08-01T01:28:09;7.47;;;3.80;;
25449;SDS011;13371;52.080;5.624;2023-08-01T01:30:36;6.10;;;3.60;;
25449;SDS011;13371;52.080;5.624;2023-08-01T01:33:02;9.73;;;3.65;;
25449;SDS011;13371;52.080;5.624;2023-08-01T01:35:29;8.98;;;3.88;;
25449;SDS011;13371;52.080;5.624;2023-08-01T01:37:54;8.25;;;3.50;;
25449;SDS011;13371;52.080;5.624;2023-08-01T01:40:20;6.05;;;3.90;;
25449;SDS011;13371;52.080;5.624;2023-08-01T01:42:46;9.13;;;4.10;;
25449;SDS011;13371;52.080;5.624;2023-08-01T01:45:13;5.35;;;3.75;;
25449;SDS011;13371;52.080;5.624;2023-08-01T01:47:38;6.20;;;4.53;;
25449;SDS011;13371;52.080;5.624;2023-08-01T01:50:04;8.82;;;4.47;;
25449;SDS011;13371;52.080;5.624;2023-08-01T01:52:30;9.50;;;4.57;;
25449;SDS011;13371;52.080;5.624;2023-08-01T01:54:56;7.55;;;3.97;;
25449;SDS011;13371;52.080;5.624;2023-08-01T01:57:21;11.63;;;5.40;;
25449;SDS011;13371;52.080;5.624;2023-08-01T01:59:47;9.68;;;4.75;;
25449;SDS011;13371;52.080;5.624;2023-08-01T02:02:12;8.05;;;4.88;;
25449;SDS011;13371;52.080;5.624;2023-08-01T02:04:39;12.07;;;5.18;;
25449;SDS011;13371;52.080;5.624;2023-08-01T02:07:05;8.63;;;5.30;;
25449;SDS011;13371;52.080;5.624;2023-08-01T02:09:30;7.55;;;5.10;;
25449;SDS011;13371;52.080;5.624;2023-08-01T02:11:56;8.50;;;4.88;;
25449;SDS011;13371;52.080;5.624;2023-08-01T02:14:22;10.43;;;4.82;;
25449;SDS011;13371;52.080;5.624;2023-08-01T02:16:47;12.93;;;6.13;;
25449;SDS011;13371;52.080;5.624;2023-08-01T02:19:13;9.70;;;4.88;;
25449;SDS011;13371;52.080;5.624;2023-08-01T02:21:38;9.40;;;5.32;;
25449;SDS011;13371;52.080;5.624;2023-08-01T02:24:04;12.77;;;5.38;;
25449;SDS011;13371;52.080;5.624;2023-08-01T02:26:30;9.60;;;5.18;;
25449;SDS011;13371;52.080;5.624;2023-08-01T02:28:56;11.15;;;5.40;;
25449;SDS011;13371;52.080;5.624;2023-08-01T02:31:21;13.10;;;5.32;;
25449;SDS011;13371;52.080;5.624;2023-08-01T02:33:47;10.43;;;5.40;;
25449;SDS011;13371;52.080;5.624;2023-08-01T02:36:12;9.88;;;5.30;;
25449;SDS011;13371;52.080;5.624;2023-08-01T02:38:38;11.10;;;5.35;;
25449;SDS011;13371;52.080;5.624;2023-08-01T02:41:04;11.80;;;4.57;;
25449;SDS011;13371;52.080;5.624;2023-08-01T02:43:29;13.75;;;5.35;;
25449;SDS011;13371;52.080;5.624;2023-08-01T02:45:55;10.18;;;5.38;;
25449;SDS011;13371;52.080;5.624;2023-08-01T02:48:21;10.40;;;5.05;;
25449;SDS011;13371;52.080;5.624;2023-08-01T02:50:46;10.57;;;5.38;;
25449;SDS011;13371;52.080;5.624;2023-08-01T02:53:12;15.90;;;5.85;;
25449;SDS011;13371;52.080;5.624;2023-08-01T02:55:38;9.05;;;4.88;;
25449;SDS011;13371;52.080;5.624;2023-08-01T02:58:04;13.75;;;4.57;;
25449;SDS011;13371;52.080;5.624;2023-08-01T03:00:29;12.13;;;4.68;;
25449;SDS011;13371;52.080;5.624;2023-08-01T03:02:56;14.30;;;5.00;;
25449;SDS011;13371;52.080;5.624;2023-08-01T03:05:22;15.32;;;4.60;;
25449;SDS011;13371;52.080;5.624;2023-08-01T03:07:47;18.48;;;4.63;;
25449;SDS011;13371;52.080;5.624;2023-08-01T03:10:13;11.45;;;4.40;;
25449;SDS011;13371;52.080;5.624;2023-08-01T03:12:39;11.77;;;4.45;;
25449;SDS011;13371;52.080;5.624;2023-08-01T03:15:04;13.70;;;4.88;;
25449;SDS011;13371;52.080;5.624;2023-08-01T03:17:33;11.10;;;5.05;;
25449;SDS011;13371;52.080;5.624;2023-08-01T03:19:59;17.35;;;5.60;;
25449;SDS011;13371;52.080;5.624;2023-08-01T03:22:24;17.90;;;6.25;;
25449;SDS011;13371;52.080;5.624;2023-08-01T03:24:50;10.35;;;5.43;;
25449;SDS011;13371;52.080;5.624;2023-08-01T03:27:15;14.05;;;5.03;;
25449;SDS011;13371;52.080;5.624;2023-08-01T03:29:41;13.50;;;5.63;;
25449;SDS011;13371;52.080;5.624;2023-08-01T03:32:07;11.65;;;5.13;;
25449;SDS011;13371;52.080;5.624;2023-08-01T03:34:32;11.25;;;4.85;;
25449;SDS011;13371;52.080;5.624;2023-08-01T03:36:58;14.20;;;4.88;;
25449;SDS011;13371;52.080;5.624;2023-08-01T03:39:23;8.05;;;3.97;;
25449;SDS011;13371;52.080;5.624;2023-08-01T03:41:49;8.88;;;4.22;;
25449;SDS011;13371;52.080;5.624;2023-08-01T03:44:15;8.77;;;4.05;;
25449;SDS011;13371;52.080;5.624;2023-08-01T03:46:42;8.32;;;3.30;;
25449;SDS011;13371;52.080;5.624;2023-08-01T03:49:08;10.05;;;3.63;;
25449;SDS011;13371;52.080;5.624;2023-08-01T03:51:34;8.68;;;3.55;;
25449;SDS011;13371;52.080;5.624;2023-08-01T03:53:59;11.82;;;3.38;;
25449;SDS011;13371;52.080;5.624;2023-08-01T03:56:25;6.47;;;3.42;;
25449;SDS011;13371;52.080;5.624;2023-08-01T03:58:52;6.80;;;2.80;;
25449;SDS011;13371;52.080;5.624;2023-08-01T04:01:18;6.97;;;3.50;;
25449;SDS011;13371;52.080;5.624;2023-08-01T04:03:43;11.55;;;5.00;;
25449;SDS011;13371;52.080;5.624;2023-08-01T04:06:09;9.23;;;4.03;;
25449;SDS011;13371;52.080;5.624;2023-08-01T04:08:35;9.50;;;4.50;;
25449;SDS011;13371;52.080;5.624;2023-08-01T04:11:01;9.90;;;4.05;;
25449;SDS011;13371;52.080;5.624;2023-08-01T04:13:27;9.23;;;4.38;;
25449;SDS011;13371;52.080;5.624;2023-08-01T04:15:52;10.02;;;4.60;;
25449;SDS011;13371;52.080;5.624;2023-08-01T04:18:18;11.38;;;4.53;;
25449;SDS011;13371;52.080;5.624;2023-08-01T04:20:43;9.50;;;3.45;;
25449;SDS011;13371;52.080;5.624;2023-08-01T04:23:09;5.63;;;3.03;;
25449;SDS011;13371;52.080;5.624;2023-08-01T04:25:34;13.52;;;4.65;;
25449;SDS011;13371;52.080;5.624;2023-08-01T04:28:00;7.22;;;3.30;;
25449;SDS011;13371;52.080;5.624;2023-08-01T04:30:26;8.75;;;3.80;;
25449;SDS011;13371;52.080;5.624;2023-08-01T04:32:51;11.65;;;3.95;;
25449;SDS011;13371;52.080;5.624;2023-08-01T04:35:17;9.77;;;3.58;;
25449;SDS011;13371;52.080;5.624;2023-08-01T04:37:42;7.93;;;3.40;;
25449;SDS011;13371;52.080;5.624;2023-08-01T04:40:08;8.52;;;3.50;;
25449;SDS011;13371;52.080;5.624;2023-08-01T04:42:34;11.38;;;3.60;;
25449;SDS011;13371;52.080;5.624;2023-08-01T04:44:59;7.90;;;3.42;;
25449;SDS011;13371;52.080;5.624;2023-08-01T04:47:25;6.95;;;3.45;;
25449;SDS011;13371;52.080;5.624;2023-08-01T04:49:50;10.35;;;4.60;;
25449;SDS011;13371;52.080;5.624;2023-08-01T04:52:16;8.85;;;3.88;;
25449;SDS011;13371;52.080;5.624;2023-08-01T04:54:42;6.25;;;3.65;;
25449;SDS011;13371;52.080;5.624;2023-08-01T04:57:07;8.82;;;4.20;;
25449;SDS011;13371;52.080;5.624;2023-08-01T04:59:33;7.22;;;3.78;;
25449;SDS011;13371;52.080;5.624;2023-08-01T05:01:58;10.20;;;4.45;;
25449;SDS011;13371;52.080;5.624;2023-08-01T05:04:24;11.70;;;4.05;;
25449;SDS011;13371;52.080;5.624;2023-08-01T05:06:50;12.10;;;4.07;;
25449;SDS011;13371;52.080;5.624;2023-08-01T05:09:15;9.27;;;3.80;;
25449;SDS011;13371;52.080;5.624;2023-08-01T05:11:41;6.45;;;3.88;;
25449;SDS011;13371;52.080;5.624;2023-08-01T05:14:06;11.80;;;4.78;;
25449;SDS011;13371;52.080;5.624;2023-08-01T05:16:33;12.57;;;4.05;;
25449;SDS011;13371;52.080;5.624;2023-08-01T05:18:59;13.32;;;4.47;;
25449;SDS011;13371;52.080;5.624;2023-08-01T05:21:24;14.13;;;4.97;;
25449;SDS011;13371;52.080;5.624;2023-08-01T05:23:50;10.40;;;4.47;;
25449;SDS011;13371;52.080;5.624;2023-08-01T05:26:15;14.88;;;4.25;;
25449;SDS011;13371;52.080;5.624;2023-08-01T05:28:41;10.65;;;4.20;;
25449;SDS011;13371;52.080;5.624;2023-08-01T05:31:07;16.90;;;5.05;;
25449;SDS011;13371;52.080;5.624;2023-08-01T05:33:32;16.55;;;4.88;;
25449;SDS011;13371;52.080;5.624;2023-08-01T05:35:58;14.80;;;5.78;;
25449;SDS011;13371;52.080;5.624;2023-08-01T05:38:23;15.18;;;5.20;;
25449;SDS011;13371;52.080;5.624;2023-08-01T05:40:49;12.90;;;5.20;;
25449;SDS011;13371;52.080;5.624;2023-08-01T05:43:14;15.38;;;4.55;;
25449;SDS011;13371;52.080;5.624;2023-08-01T05:45:40;11.27;;;5.03;;
25449;SDS011;13371;52.080;5.624;2023-08-01T05:48:06;17.00;;;5.55;;
25449;SDS011;13371;52.080;5.624;2023-08-01T05:50:32;18.48;;;5.80;;
25449;SDS011;13371;52.080;5.624;2023-08-01T05:52:57;12.02;;;5.18;;
25449;SDS011;13371;52.080;5.624;2023-08-01T05:55:23;14.43;;;5.57;;
25449;SDS011;13371;52.080;5.624;2023-08-01T05:57:48;12.65;;;5.18;;
25449;SDS011;13371;52.080;5.624;2023-08-01T06:00:17;16.83;;;5.22;;
25449;SDS011;13371;52.080;5.624;2023-08-01T06:02:44;10.05;;;5.10;;
25449;SDS011;13371;52.080;5.624;2023-08-01T06:05:10;16.05;;;5.82;;
25449;SDS011;13371;52.080;5.624;2023-08-01T06:07:36;17.80;;;5.53;;
25449;SDS011;13371;52.080;5.624;2023-08-01T06:10:01;11.95;;;5.32;;
25449;SDS011;13371;52.080;5.624;2023-08-01T06:12:27;15.13;;;4.72;;
25449;SDS011;13371;52.080;5.624;2023-08-01T06:14:54;17.65;;;5.50;;
25449;SDS011;13371;52.080;5.624;2023-08-01T06:17:19;17.75;;;4.50;;
25449;SDS011;13371;52.080;5.624;2023-08-01T06:19:45;15.32;;;4.88;;
25449;SDS011;13371;52.080;5.624;2023-08-01T06:22:11;9.95;;;4.63;;
25449;SDS011;13371;52.080;5.624;2023-08-01T06:24:37;13.65;;;5.43;;
25449;SDS011;13371;52.080;5.624;2023-08-01T06:27:03;12.48;;;4.57;;
25449;SDS011;13371;52.080;5.624;2023-08-01T06:29:29;15.80;;;5.13;;
25449;SDS011;13371;52.080;5.624;2023-08-01T06:31:55;11.65;;;4.95;;
25449;SDS011;13371;52.080;5.624;2023-08-01T06:34:20;12.18;;;4.57;;
25449;SDS011;13371;52.080;5.624;2023-08-01T06:36:46;15.70;;;5.05;;
25449;SDS011;13371;52.080;5.624;2023-08-01T06:39:11;13.98;;;4.22;;
25449;SDS011;13371;52.080;5.624;2023-08-01T06:41:37;12.80;;;4.40;;
25449;SDS011;13371;52.080;5.624;2023-08-01T06:44:03;14.65;;;4.60;;
25449;SDS011;13371;52.080;5.624;2023-08-01T06:46:28;11.43;;;4.25;;
25449;SDS011;13371;52.080;5.624;2023-08-01T06:48:54;15.02;;;4.47;;
25449;SDS011;13371;52.080;5.624;2023-08-01T06:51:19;14.15;;;4.20;;
25449;SDS011;13371;52.080;5.624;2023-08-01T06:53:46;15.32;;;3.53;;
25449;SDS011;13371;52.080;5.624;2023-08-01T06:56:11;12.65;;;3.90;;
25449;SDS011;13371;52.080;5.624;2023-08-01T06:58:37;10.70;;;3.95;;
25449;SDS011;13371;52.080;5.624;2023-08-01T07:01:02;12.23;;;3.90;;
25449;SDS011;13371;52.080;5.624;2023-08-01T07:03:28;11.90;;;5.40;;
25449;SDS011;13371;52.080;5.624;2023-08-01T07:05:54;15.02;;;3.85;;
25449;SDS011;13371;52.080;5.624;2023-08-01T07:08:19;11.48;;;4.00;;
25449;SDS011;13371;52.080;5.624;2023-08-01T07:10:47;12.77;;;3.83;;
25449;SDS011;13371;52.080;5.624;2023-08-01T07:13:13;9.63;;;4.28;;
25449;SDS011;13371;52.080;5.624;2023-08-01T07:15:39;9.07;;;4.07;;
25449;SDS011;13371;52.080;5.624;2023-08-01T07:18:05;10.82;;;3.40;;
25449;SDS011;13371;52.080;5.624;2023-08-01T07:20:31;11.20;;;3.20;;
25449;SDS011;13371;52.080;5.624;2023-08-01T07:22:56;10.63;;;3.50;;
25449;SDS011;13371;52.080;5.624;2023-08-01T07:25:22;7.20;;;2.60;;
25449;SDS011;13371;52.080;5.624;2023-08-01T07:27:47;11.18;;;3.13;;
25449;SDS011;13371;52.080;5.624;2023-08-01T07:30:13;8.77;;;3.15;;
25449;SDS011;13371;52.080;5.624;2023-08-01T07:32:39;8.05;;;3.00;;
25449;SDS011;13371;52.080;5.624;2023-08-01T07:35:05;11.13;;;2.55;;
25449;SDS011;13371;52.080;5.624;2023-08-01T07:37:32;7.90;;;2.33;;
25449;SDS011;13371;52.080;5.624;2023-08-01T07:39:58;6.68;;;2.55;;
25449;SDS011;13371;52.080;5.624;2023-08-01T07:42:24;9.27;;;3.00;;
25449;SDS011;13371;52.080;5.624;2023-08-01T07:44:49;13.18;;;3.15;;
25449;SDS011;13371;52.080;5.624;2023-08-01T07:47:15;10.70;;;2.40;;
25449;SDS011;13371;52.080;5.624;2023-08-01T07:49:41;9.07;;;2.70;;
25449;SDS011;13371;52.080;5.624;2023-08-01T07:52:06;8.45;;;2.53;;
25449;SDS011;13371;52.080;5.624;2023-08-01T07:54:32;7.10;;;1.95;;
25449;SDS011;13371;52.080;5.624;2023-08-01T07:56:58;6.55;;;1.88;;
25449;SDS011;13371;52.080;5.624;2023-08-01T07:59:23;7.43;;;2.17;;
25449;SDS011;13371;52.080;5.624;2023-08-01T08:01:49;6.72;;;2.20;;
25449;SDS011;13371;52.080;5.624;2023-08-01T08:04:14;7.88;;;2.50;;
25449;SDS011;13371;52.080;5.624;2023-08-01T08:06:40;7.72;;;2.20;;
25449;SDS011;13371;52.080;5.624;2023-08-01T08:09:06;8.20;;;2.35;;
25449;SDS011;13371;52.080;5.624;2023-08-01T08:11:32;6.15;;;2.50;;
25449;SDS011;13371;52.080;5.624;2023-08-01T08:13:58;9.25;;;2.92;;
25449;SDS011;13371;52.080;5.624;2023-08-01T08:16:24;10.32;;;2.65;;
25449;SDS011;13371;52.080;5.624;2023-08-01T08:18:50;6.70;;;2.55;;
25449;SDS011;13371;52.080;5.624;2023-08-01T08:21:15;7.25;;;2.75;;
25449;SDS011;13371;52.080;5.624;2023-08-01T08:23:41;10.77;;;3.05;;
25449;SDS011;13371;52.080;5.624;2023-08-01T08:26:07;8.35;;;3.00;;
25449;SDS011;13371;52.080;5.624;2023-08-01T08:28:32;9.50;;;3.33;;
25449;SDS011;13371;52.080;5.624;2023-08-01T08:30:59;9.65;;;2.78;;
25449;SDS011;13371;52.080;5.624;2023-08-01T08:33:27;11.60;;;3.33;;
25449;SDS011;13371;52.080;5.624;2023-08-01T08:35:53;6.22;;;2.95;;
25449;SDS011;13371;52.080;5.624;2023-08-01T08:38:19;7.15;;;2.58;;
25449;SDS011;13371;52.080;5.624;2023-08-01T08:40:52;6.85;;;2.58;;
25449;SDS011;13371;52.080;5.624;2023-08-01T08:43:26;8.02;;;1.67;;
25449;SDS011;13371;52.080;5.624;2023-08-01T08:45:53;4.93;;;1.80;;
25449;SDS011;13371;52.080;5.624;2023-08-01T08:48:22;3.83;;;1.90;;
25449;SDS011;13371;52.080;5.624;2023-08-01T08:50:50;7.47;;;1.98;;
25449;SDS011;13371;52.080;5.624;2023-08-01T08:53:17;7.05;;;2.00;;
25449;SDS011;13371;52.080;5.624;2023-08-01T08:55:43;7.45;;;2.20;;
25449;SDS011;13371;52.080;5.624;2023-08-01T08:58:09;8.57;;;2.05;;
25449;SDS011;13371;52.080;5.624;2023-08-01T09:00:35;6.18;;;1.73;;
25449;SDS011;13371;52.080;5.624;2023-08-01T09:03:05;9.18;;;2.75;;
25449;SDS011;13371;52.080;5.624;2023-08-01T09:05:32;5.72;;;1.50;;
25449;SDS011;13371;52.080;5.624;2023-08-01T09:08:15;7.32;;;2.55;;
25449;SDS011;13371;52.080;5.624;2023-08-01T09:10:43;6.43;;;1.63;;
25449;SDS011;13371;52.080;5.624;2023-08-01T09:13:08;7.75;;;1.88;;
25449;SDS011;13371;52.080;5.624;2023-08-01T09:15:34;5.65;;;1.55;;
25449;SDS011;13371;52.080;5.624;2023-08-01T09:18:05;9.07;;;1.92;;
25449;SDS011;13371;52.080;5.624;2023-08-01T09:20:48;4.85;;;2.03;;
25449;SDS011;13371;52.080;5.624;2023-08-01T09:23:15;6.57;;;2.00;;
25449;SDS011;13371;52.080;5.624;2023-08-01T09:25:42;5.90;;;1.55;;
25449;SDS011;13371;52.080;5.624;2023-08-01T09:28:18;6.90;;;1.88;;
25449;SDS011;13371;52.080;5.624;2023-08-01T09:30:49;6.75;;;1.70;;
25449;SDS011;13371;52.080;5.624;2023-08-01T09:33:16;9.75;;;1.52;;
25449;SDS011;13371;52.080;5.624;2023-08-01T09:35:42;6.90;;;1.50;;
25449;SDS011;13371;52.080;5.624;2023-08-01T09:38:09;5.40;;;1.58;;
25449;SDS011;13371;52.080;5.624;2023-08-01T09:40:37;6.50;;;1.60;;
25449;SDS011;13371;52.080;5.624;2023-08-01T09:43:02;4.25;;;1.70;;
25449;SDS011;13371;52.080;5.624;2023-08-01T09:45:28;7.47;;;1.65;;
25449;SDS011;13371;52.080;5.624;2023-08-01T09:47:54;6.97;;;1.73;;
25449;SDS011;13371;52.080;5.624;2023-08-01T09:50:21;7.63;;;1.42;;
25449;SDS011;13371;52.080;5.624;2023-08-01T09:52:47;3.20;;;1.40;;
25449;SDS011;13371;52.080;5.624;2023-08-01T09:55:25;5.05;;;1.80;;
25449;SDS011;13371;52.080;5.624;2023-08-01T09:57:57;5.68;;;1.63;;
25449;SDS011;13371;52.080;5.624;2023-08-01T10:00:27;7.78;;;1.40;;
25449;SDS011;13371;52.080;5.624;2023-08-01T10:02:58;4.65;;;1.45;;
25449;SDS011;13371;52.080;5.624;2023-08-01T10:05:31;4.38;;;1.70;;
25449;SDS011;13371;52.080;5.624;2023-08-01T10:07:59;8.77;;;2.10;;
25449;SDS011;13371;52.080;5.624;2023-08-01T10:10:26;5.30;;;1.80;;
25449;SDS011;13371;52.080;5.624;2023-08-01T10:12:54;6.95;;;2.05;;
25449;SDS011;13371;52.080;5.624;2023-08-01T10:15:21;7.50;;;1.80;;
25449;SDS011;13371;52.080;5.624;2023-08-01T10:17:47;7.00;;;1.83;;
25449;SDS011;13371;52.080;5.624;2023-08-01T10:20:13;5.78;;;1.88;;
25449;SDS011;13371;52.080;5.624;2023-08-01T10:22:40;11.27;;;2.38;;
25449;SDS011;13371;52.080;5.624;2023-08-01T10:25:07;8.98;;;2.05;;
25449;SDS011;13371;52.080;5.624;2023-08-01T10:27:35;5.93;;;1.70;;
25449;SDS011;13371;52.080;5.624;2023-08-01T10:30:02;8.32;;;2.35;;
25449;SDS011;13371;52.080;5.624;2023-08-01T10:32:32;5.70;;;1.70;;
25449;SDS011;13371;52.080;5.624;2023-08-01T10:34:59;3.72;;;1.60;;
25449;SDS011;13371;52.080;5.624;2023-08-01T10:37:25;6.43;;;1.85;;
25449;SDS011;13371;52.080;5.624;2023-08-01T10:39:58;6.72;;;1.77;;
25449;SDS011;13371;52.080;5.624;2023-08-01T10:42:37;3.88;;;1.20;;
25449;SDS011;13371;52.080;5.624;2023-08-01T10:45:03;4.68;;;1.50;;
25449;SDS011;13371;52.080;5.624;2023-08-01T10:47:29;8.02;;;1.88;;
25449;SDS011;13371;52.080;5.624;2023-08-01T10:49:56;7.28;;;1.95;;
25449;SDS011;13371;52.080;5.624;2023-08-01T10:52:23;4.07;;;1.73;;
25449;SDS011;13371;52.080;5.624;2023-08-01T10:54:56;5.05;;;2.00;;
25449;SDS011;13371;52.080;5.624;2023-08-01T10:57:22;7.78;;;2.45;;
25449;SDS011;13371;52.080;5.624;2023-08-01T10:59:48;7.22;;;1.88;;
25449;SDS011;13371;52.080;5.624;2023-08-01T11:02:19;8.70;;;1.63;;
25449;SDS011;13371;52.080;5.624;2023-08-01T11:04:59;7.82;;;2.00;;
25449;SDS011;13371;52.080;5.624;2023-08-01T11:07:25;6.88;;;2.17;;
25449;SDS011;13371;52.080;5.624;2023-08-01T11:12:43;4.97;;;1.48;;
25449;SDS011;13371;52.080;5.624;2023-08-01T11:15:10;5.07;;;1.77;;
25449;SDS011;13371;52.080;5.624;2023-08-01T11:17:37;5.63;;;1.50;;
25449;SDS011;13371;52.080;5.624;2023-08-01T11:20:07;7.57;;;1.70;;
25449;SDS011;13371;52.080;5.624;2023-08-01T11:22:35;5.18;;;1.48;;
25449;SDS011;13371;52.080;5.624;2023-08-01T11:25:04;6.25;;;1.58;;
25449;SDS011;13371;52.080;5.624;2023-08-01T11:27:30;7.00;;;1.27;;
25449;SDS011;13371;52.080;5.624;2023-08-01T11:29:57;4.63;;;0.93;;
25449;SDS011;13371;52.080;5.624;2023-08-01T11:32:32;5.72;;;1.25;;
25449;SDS011;13371;52.080;5.624;2023-08-01T11:34:59;5.78;;;1.35;;
25449;SDS011;13371;52.080;5.624;2023-08-01T11:37:25;8.95;;;1.33;;
25449;SDS011;13371;52.080;5.624;2023-08-01T11:39:51;2.65;;;1.35;;
25449;SDS011;13371;52.080;5.624;2023-08-01T11:42:17;3.47;;;1.60;;
25449;SDS011;13371;52.080;5.624;2023-08-01T11:44:43;3.33;;;1.38;;
25449;SDS011;13371;52.080;5.624;2023-08-01T11:47:13;3.72;;;1.27;;
25449;SDS011;13371;52.080;5.624;2023-08-01T11:49:44;5.88;;;1.50;;
25449;SDS011;13371;52.080;5.624;2023-08-01T11:52:26;7.35;;;2.00;;
25449;SDS011;13371;52.080;5.624;2023-08-01T11:54:53;4.60;;;1.75;;
25449;SDS011;13371;52.080;5.624;2023-08-01T11:57:21;6.88;;;1.50;;
25449;SDS011;13371;52.080;5.624;2023-08-01T11:59:51;6.20;;;1.40;;
25449;SDS011;13371;52.080;5.624;2023-08-01T12:02:26;8.02;;;1.58;;
25449;SDS011;13371;52.080;5.624;2023-08-01T12:04:55;7.82;;;1.50;;
25449;SDS011;13371;52.080;5.624;2023-08-01T12:07:20;8.05;;;1.77;;
25449;SDS011;13371;52.080;5.624;2023-08-01T12:09:59;5.60;;;1.33;;
25449;SDS011;13371;52.080;5.624;2023-08-01T12:12:26;4.53;;;1.30;;
25449;SDS011;13371;52.080;5.624;2023-08-01T12:14:52;3.22;;;1.30;;
25449;SDS011;13371;52.080;5.624;2023-08-01T12:17:19;4.68;;;1.33;;
25449;SDS011;13371;52.080;5.624;2023-08-01T12:19:45;4.80;;;1.40;;
25449;SDS011;13371;52.080;5.624;2023-08-01T12:22:11;7.18;;;1.70;;
25449;SDS011;13371;52.080;5.624;2023-08-01T12:24:37;5.55;;;1.50;;
25449;SDS011;13371;52.080;5.624;2023-08-01T12:27:07;5.35;;;1.75;;
25449;SDS011;13371;52.080;5.624;2023-08-01T12:29:33;4.40;;;1.50;;
25449;SDS011;13371;52.080;5.624;2023-08-01T12:32:00;5.70;;;1.50;;
25449;SDS011;13371;52.080;5.624;2023-08-01T12:34:26;6.32;;;1.63;;
25449;SDS011;13371;52.080;5.624;2023-08-01T12:36:52;4.80;;;1.55;;
25449;SDS011;13371;52.080;5.624;2023-08-01T12:39:18;5.22;;;1.30;;
25449;SDS011;13371;52.080;5.624;2023-08-01T12:41:43;7.93;;;1.70;;
25449;SDS011;13371;52.080;5.624;2023-08-01T12:44:09;4.15;;;1.50;;
25449;SDS011;13371;52.080;5.624;2023-08-01T12:46:34;7.45;;;1.40;;
25449;SDS011;13371;52.080;5.624;2023-08-01T12:49:00;7.22;;;1.73;;
25449;SDS011;13371;52.080;5.624;2023-08-01T12:51:26;5.50;;;1.40;;
25449;SDS011;13371;52.080;5.624;2023-08-01T12:53:51;6.55;;;1.35;;
25449;SDS011;13371;52.080;5.624;2023-08-01T12:56:17;8.75;;;1.67;;
25449;SDS011;13371;52.080;5.624;2023-08-01T12:58:43;6.13;;;1.70;;
25449;SDS011;13371;52.080;5.624;2023-08-01T13:01:08;6.80;;;1.63;;
25449;SDS011;13371;52.080;5.624;2023-08-01T13:03:34;6.35;;;1.50;;
25449;SDS011;13371;52.080;5.624;2023-08-01T13:06:00;9.75;;;2.20;;
25449;SDS011;13371;52.080;5.624;2023-08-01T13:08:25;8.40;;;1.50;;
25449;SDS011;13371;52.080;5.624;2023-08-01T13:10:51;5.97;;;1.70;;
25449;SDS011;13371;52.080;5.624;2023-08-01T13:13:17;7.18;;;1.48;;
25449;SDS011;13371;52.080;5.624;2023-08-01T13:15:42;6.95;;;1.38;;
25449;SDS011;13371;52.080;5.624;2023-08-01T13:18:09;8.93;;;1.85;;
25449;SDS011;13371;52.080;5.624;2023-08-01T13:20:35;6.72;;;1.50;;
25449;SDS011;13371;52.080;5.624;2023-08-01T13:23:01;5.57;;;1.67;;
25449;SDS011;13371;52.080;5.624;2023-08-01T13:25:28;4.50;;;1.48;;
25449;SDS011;13371;52.080;5.624;2023-08-01T13:27:54;5.07;;;1.20;;
25449;SDS011;13371;52.080;5.624;2023-08-01T13:30:19;3.05;;;1.30;;
25449;SDS011;13371;52.080;5.624;2023-08-01T13:32:45;4.82;;;1.30;;
25449;SDS011;13371;52.080;5.624;2023-08-01T13:35:11;7.53;;;1.80;;
25449;SDS011;13371;52.080;5.624;2023-08-01T13:37:37;9.70;;;1.77;;
25449;SDS011;13371;52.080;5.624;2023-08-01T13:40:03;5.40;;;1.70;;
25449;SDS011;13371;52.080;5.624;2023-08-01T13:42:29;5.68;;;1.58;;
25449;SDS011;13371;52.080;5.624;2023-08-01T13:44:55;6.63;;;1.60;;
25449;SDS011;13371;52.080;5.624;2023-08-01T13:47:21;8.13;;;2.00;;
25449;SDS011;13371;52.080;5.624;2023-08-01T13:49:46;8.45;;;2.03;;
25449;SDS011;13371;52.080;5.624;2023-08-01T13:52:12;7.82;;;2.13;;
25449;SDS011;13371;52.080;5.624;2023-08-01T13:54:38;13.05;;;2.25;;
25449;SDS011;13371;52.080;5.624;2023-08-01T13:57:04;4.82;;;1.80;;
25449;SDS011;13371;52.080;5.624;2023-08-01T13:59:30;6.55;;;1.90;;
25449;SDS011;13371;52.080;5.624;2023-08-01T14:01:56;7.82;;;2.22;;
25449;SDS011;13371;52.080;5.624;2023-08-01T14:04:22;5.38;;;2.33;;
25449;SDS011;13371;52.080;5.624;2023-08-01T14:06:47;6.68;;;2.20;;
25449;SDS011;13371;52.080;5.624;2023-08-01T14:09:13;5.97;;;2.15;;
25449;SDS011;13371;52.080;5.624;2023-08-01T14:11:39;8.55;;;1.42;;
25449;SDS011;13371;52.080;5.624;2023-08-01T14:14:05;5.00;;;1.77;;
25449;SDS011;13371;52.080;5.624;2023-08-01T14:16:31;5.18;;;1.63;;
25449;SDS011;13371;52.080;5.624;2023-08-01T14:18:57;10.07;;;1.70;;
25449;SDS011;13371;52.080;5.624;2023-08-01T14:21:23;6.45;;;1.20;;
25449;SDS011;13371;52.080;5.624;2023-08-01T14:23:49;6.32;;;1.60;;
25449;SDS011;13371;52.080;5.624;2023-08-01T14:26:14;5.10;;;1.50;;
25449;SDS011;13371;52.080;5.624;2023-08-01T14:28:40;2.92;;;1.23;;
25449;SDS011;13371;52.080;5.624;2023-08-01T14:31:06;4.75;;;1.25;;
25449;SDS011;13371;52.080;5.624;2023-08-01T14:33:44;3.78;;;1.40;;
25449;SDS011;13371;52.080;5.624;2023-08-01T14:36:10;7.63;;;1.63;;
25449;SDS011;13371;52.080;5.624;2023-08-01T14:38:37;9.27;;;1.48;;
25449;SDS011;13371;52.080;5.624;2023-08-01T14:41:06;5.72;;;1.65;;